Time;durP1;ratioP1;P1;durP2;ratioP2;P2;SDS_P1;SDS_P2;PMS_P1;PMS_P2;Temp;Humidity;BMP_temperature;BMP_pressure;BME280_temperature;BME280_humidity;BME280_pressure;Samples;Min_cycle;Max_cycle;Signal;HPM_P1;HPM_P2
2023/06/05 00:01:35;;;;;;;;;3.67;2.00;;;;;21.39;41.63;101308.97;6133381;23;44854;-61
2023/06/05 00:04:00;;;;;;;;;3.00;3.00;;;;;21.27;41.93;101301.84;6132665;23;46564;-61
2023/06/05 00:06:26;;;;;;;;;3.67;3.67;;;;;21.15;41.92;101289.28;6132017;23;45106;-61
2023/06/05 00:08:51;;;;;;;;;4.67;4.00;;;;;21.26;41.76;101310.00;6131500;23;45377;-61
2023/06/05 00:11:17;;;;;;;;;3.00;3.00;;;;;21.19;41.92;101303.72;6132054;23;44998;-62
2023/06/05 00:13:42;;;;;;;;;5.00;5.00;;;;;21.14;42.23;101311.91;6130993;23;45882;-62
2023/06/05 00:16:07;;;;;;;;;2.33;2.33;;;;;21.13;42.03;101310.09;6132593;23;44850;-62
2023/06/05 00:18:33;;;;;;;;;4.00;4.00;;;;;20.97;42.47;101289.44;6133889;23;44939;-60
2023/06/05 00:20:58;;;;;;;;;5.33;2.33;;;;;21.06;42.36;101297.50;6134414;23;45108;-60
2023/06/05 00:23:24;;;;;;;;;3.00;2.33;;;;;21.05;42.55;101300.22;6130238;23;45180;-61
2023/06/05 00:25:49;;;;;;;;;2.33;2.00;;;;;21.03;42.69;101302.94;6130509;23;44863;-61
2023/06/05 00:28:15;;;;;;;;;4.00;2.00;;;;;20.99;42.54;101303.91;6131758;23;45107;-62
2023/06/05 00:30:40;;;;;;;;;4.33;2.33;;;;;20.97;42.25;101309.34;6132373;23;45233;-59
2023/06/05 00:33:05;;;;;;;;;5.33;3.00;;;;;20.97;42.57;101314.78;6132058;23;45719;-61
2023/06/05 00:35:31;;;;;;;;;6.33;4.33;;;;;20.94;42.43;101309.34;6129492;23;45106;-62
2023/06/05 00:37:56;;;;;;;;;3.33;3.33;;;;;20.85;42.36;101305.81;6131768;23;44958;-63
2023/06/05 00:40:22;;;;;;;;;2.33;2.33;;;;;20.83;42.88;101322.13;6129669;23;44920;-61
2023/06/05 00:42:47;;;;;;;;;3.00;3.00;;;;;20.78;43.01;101324.84;6131664;23;45025;-62
2023/06/05 00:45:13;;;;;;;;;1.67;1.00;;;;;20.75;42.94;101321.25;6130183;23;45041;-62
2023/06/05 00:47:39;;;;;;;;;4.00;3.00;;;;;20.69;43.02;101318.56;6132124;23;44985;-61
2023/06/05 00:50:07;;;;;;;;;3.00;3.00;;;;;20.67;43.22;101314.97;6132223;23;45165;-62
2023/06/05 00:52:33;;;;;;;;;4.00;2.33;;;;;20.60;43.20;101309.53;6131555;23;45455;-61
2023/06/05 00:54:59;;;;;;;;;3.00;3.00;;;;;20.67;43.46;101321.31;6130239;23;44856;-61
2023/06/05 00:57:27;;;;;;;;;5.67;4.00;;;;;20.57;43.35;101308.66;6132381;23;45069;-60
2023/06/05 00:59:53;;;;;;;;;7.00;4.00;;;;;20.59;43.51;101312.25;6132522;23;44921;-61
2023/06/05 01:02:19;;;;;;;;;4.00;4.00;;;;;20.56;43.44;101313.19;6132536;23;45151;-63
2023/06/05 01:04:46;;;;;;;;;3.33;3.33;;;;;20.52;43.53;101303.25;6132376;23;44940;-60
2023/06/05 01:07:14;;;;;;;;;4.33;3.67;;;;;20.55;43.59;101315.94;6131372;23;45003;-61
2023/06/05 01:09:40;;;;;;;;;3.33;3.33;;;;;20.48;43.72;101314.16;6130854;23;45125;-62
2023/06/05 01:12:22;;;;;;;;;3.67;3.33;;;;;20.37;43.61;101298.81;6130859;23;45452;-61
2023/06/05 01:14:49;;;;;;;;;3.00;3.00;;;;;20.47;43.83;101312.34;6130600;23;45172;-61
2023/06/05 01:17:18;;;;;;;;;4.67;4.00;;;;;20.40;43.78;101298.81;6131682;23;44944;-60
2023/06/05 01:19:45;;;;;;;;;5.33;4.00;;;;;20.28;43.92;101278.97;6131590;23;45386;-61
2023/06/05 01:22:12;;;;;;;;;5.33;4.00;;;;;20.43;43.94;101311.47;6131054;23;45171;-61
2023/06/05 01:24:40;;;;;;;;;4.00;4.00;;;;;20.44;44.00;101315.97;6131282;23;44813;-60
2023/06/05 01:27:21;;;;;;;;;5.00;3.00;;;;;20.30;43.78;101305.19;6132001;23;44978;-61
2023/06/05 01:29:56;;;;;;;;;3.00;3.00;;;;;20.27;44.35;101302.50;6131598;23;45116;-60
2023/06/05 01:32:36;;;;;;;;;3.00;3.00;;;;;20.34;43.90;101317.84;6130970;23;45793;-61
2023/06/05 01:35:08;;;;;;;;;6.67;4.00;;;;;20.32;44.04;101318.75;6132058;23;44934;-64
2023/06/05 01:37:40;;;;;;;;;6.67;4.00;;;;;20.33;44.02;101318.75;6131646;23;45067;-62
2023/06/05 01:40:19;;;;;;;;;2.67;2.67;;;;;20.20;43.94;101298.03;6130820;23;45115;-61
2023/06/05 01:42:46;;;;;;;;;3.33;3.00;;;;;20.27;44.28;101321.50;6128344;23;45365;-62
2023/06/05 01:45:13;;;;;;;;;5.00;5.00;;;;;20.22;44.34;101316.06;6131326;23;45119;-62
2023/06/05 01:47:39;;;;;;;;;5.00;3.00;;;;;20.15;44.23;101308.00;6132830;23;44933;-60
2023/06/05 01:50:05;;;;;;;;;2.00;2.00;;;;;20.18;44.53;101306.16;6131325;23;45059;-61
2023/06/05 01:52:31;;;;;;;;;2.00;2.00;;;;;20.03;44.34;101287.25;6131181;23;45466;-61
2023/06/05 01:55:01;;;;;;;;;4.00;3.00;;;;;20.16;44.46;101305.28;6128332;23;45123;-61
2023/06/05 01:57:31;;;;;;;;;6.33;4.33;;;;;20.07;44.43;101298.06;6130578;23;45096;-59
2023/06/05 01:59:56;;;;;;;;;4.00;4.00;;;;;19.99;44.66;101297.19;6131282;23;45004;-62
2023/06/05 02:02:21;;;;;;;;;4.00;4.00;;;;;20.01;44.75;101297.19;6131752;23;45547;-61
2023/06/05 02:04:48;;;;;;;;;3.00;3.00;;;;;19.97;44.75;101288.16;6132737;23;45091;-62
2023/06/05 02:07:14;;;;;;;;;5.00;5.00;;;;;20.03;44.51;101295.38;6131707;23;45017;-60
2023/06/05 02:09:40;;;;;;;;;4.00;3.67;;;;;20.02;45.03;101301.72;6130769;23;45501;-63
2023/06/05 02:12:07;;;;;;;;;3.33;3.33;;;;;20.00;44.79;101292.69;6131540;23;45684;-60
2023/06/05 02:14:35;;;;;;;;;6.00;5.33;;;;;19.88;45.07;101280.97;6130274;23;44970;-60
2023/06/05 02:17:02;;;;;;;;;5.67;3.67;;;;;19.90;45.17;101294.53;6130673;23;44910;-62
2023/06/05 02:19:27;;;;;;;;;5.33;5.33;;;;;19.80;45.11;101273.75;6131253;23;44887;-61
2023/06/05 02:21:53;;;;;;;;;5.00;5.00;;;;;19.92;45.04;101291.81;6129545;23;46001;-61
2023/06/05 02:24:18;;;;;;;;;6.67;3.33;;;;;19.75;45.17;101264.69;6131143;23;45092;-62
2023/06/05 02:26:44;;;;;;;;;6.33;4.33;;;;;19.79;45.10;101275.56;6130298;23;44897;-60
2023/06/05 02:29:10;;;;;;;;;6.67;3.00;;;;;19.80;45.29;101292.72;6132015;23;45012;-60
2023/06/05 02:31:36;;;;;;;;;5.00;4.00;;;;;19.75;45.22;101291.81;6130094;23;45380;-60
2023/06/05 02:34:02;;;;;;;;;5.00;3.33;;;;;19.69;45.57;101292.75;6126883;23;45418;-62
2023/06/05 02:36:32;;;;;;;;;8.00;5.00;;;;;19.68;45.46;101296.34;6131016;23;45224;-61
2023/06/05 02:39:01;;;;;;;;;5.33;3.67;;;;;19.59;45.77;101290.97;6131355;23;44945;-61
2023/06/05 02:41:27;;;;;;;;;5.33;3.67;;;;;19.59;45.74;101290.97;6131022;23;45602;-59
2023/06/05 02:43:54;;;;;;;;;3.00;3.00;;;;;19.49;45.86;101280.13;6129886;23;44915;-60
2023/06/05 02:46:21;;;;;;;;;5.33;5.33;;;;;19.51;45.98;101294.56;6131293;23;44889;-60
2023/06/05 02:48:47;;;;;;;;;5.33;3.67;;;;;19.49;46.13;101290.97;6131802;23;45132;-60
2023/06/05 02:51:12;;;;;;;;;4.00;4.00;;;;;19.40;46.13;101274.75;6130817;23;45522;-61
2023/06/05 02:53:38;;;;;;;;;7.67;4.67;;;;;19.33;46.43;101276.53;6129852;23;44945;-61
2023/06/05 02:56:04;;;;;;;;;4.00;4.00;;;;;19.37;46.60;101273.81;6132106;23;44985;-61
2023/06/05 02:58:31;;;;;;;;;4.00;4.00;;;;;19.34;46.80;101274.75;6131218;23;45026;-61
2023/06/05 03:01:01;;;;;;;;;5.00;4.00;;;;;19.40;46.45;101292.78;6130172;23;45326;-60
2023/06/05 03:03:29;;;;;;;;;3.67;3.33;;;;;19.32;46.71;101290.09;6131553;23;45012;-60
2023/06/05 03:05:55;;;;;;;;;3.33;3.33;;;;;19.24;46.71;101281.97;6131722;23;45038;-61
2023/06/05 03:08:20;;;;;;;;;7.00;6.00;;;;;19.26;46.79;101280.16;6131362;23;44977;-61
2023/06/05 03:10:46;;;;;;;;;4.67;4.67;;;;;19.19;46.82;101259.41;6131781;23;45323;-61
2023/06/05 03:13:11;;;;;;;;;7.33;4.00;;;;;19.25;47.25;101282.88;6132166;23;45110;-63
2023/06/05 03:15:37;;;;;;;;;4.67;4.67;;;;;19.26;47.10;101288.28;6133404;23;45379;-62
2023/06/05 03:18:02;;;;;;;;;5.33;4.00;;;;;18.77;47.23;101218.75;6132151;23;44968;-60
2023/06/05 03:20:28;;;;;;;;;4.00;4.00;;;;;19.17;47.19;101291.00;6128936;23;45154;-62
2023/06/05 03:22:56;;;;;;;;;6.33;6.33;;;;;19.10;47.78;101284.66;6133011;23;45056;-61
2023/06/05 03:25:21;;;;;;;;;5.00;4.67;;;;;19.10;47.62;101297.31;6132587;23;45374;-61
2023/06/05 03:27:47;;;;;;;;;6.00;5.00;;;;;19.02;47.92;101281.06;6133576;23;44871;-60
2023/06/05 03:30:16;;;;;;;;;3.00;3.00;;;;;19.10;47.74;101295.50;6132697;23;46338;-59
2023/06/05 03:32:41;;;;;;;;;7.00;4.00;;;;;19.06;47.94;101299.13;6132561;23;45096;-60
2023/06/05 03:35:07;;;;;;;;;5.00;5.00;;;;;19.04;48.04;101292.81;6132073;23;44980;-60
2023/06/05 03:37:32;;;;;;;;;4.67;4.33;;;;;19.06;48.06;101287.41;6132704;23;45091;-60
2023/06/05 03:39:58;;;;;;;;;7.33;5.00;;;;;18.97;47.93;101277.47;6132433;23;45441;-60
2023/06/05 03:42:23;;;;;;;;;7.00;5.33;;;;;18.53;48.21;101211.53;6130957;23;48330;-61
2023/06/05 03:44:48;;;;;;;;;9.00;5.67;;;;;18.79;48.53;101276.53;6131628;23;44902;-59
2023/06/05 03:47:14;;;;;;;;;10.33;8.33;;;;;18.84;48.64;101287.41;6131338;23;44897;-63
2023/06/05 03:49:47;;;;;;;;;4.67;4.00;;;;;18.84;48.84;101303.66;6130161;23;45493;-61
2023/06/05 03:52:14;;;;;;;;;5.00;4.00;;;;;18.71;49.20;101293.63;6131335;23;45006;-60
2023/06/05 03:54:40;;;;;;;;;5.00;5.00;;;;;18.63;49.55;101295.44;6131711;23;44946;-61
2023/06/05 03:57:09;;;;;;;;;6.67;4.33;;;;;18.51;49.51;101280.06;6132629;23;45040;-62
2023/06/05 03:59:34;;;;;;;;;4.67;4.67;;;;;18.57;50.08;101304.44;6132582;23;45698;-61
2023/06/05 04:02:02;;;;;;;;;8.67;6.67;;;;;18.57;50.13;101302.63;6131272;23;45017;-60
2023/06/05 04:04:27;;;;;;;;;4.00;3.67;;;;;18.52;50.14;101295.41;6132884;23;45139;-62
2023/06/05 04:06:55;;;;;;;;;9.33;6.67;;;;;18.57;50.17;101310.75;6133350;23;44826;-62
2023/06/05 04:09:21;;;;;;;;;4.67;3.33;;;;;18.54;50.22;101304.44;6131255;23;45563;-63
2023/06/05 04:11:47;;;;;;;;;9.00;7.00;;;;;18.53;50.00;101294.53;6132738;23;45103;-61
2023/06/05 04:14:13;;;;;;;;;7.00;7.00;;;;;18.48;49.84;101283.69;6133269;23;44970;-60
2023/06/05 04:16:39;;;;;;;;;7.33;7.33;;;;;18.55;50.10;101299.03;6133915;23;45037;-62
2023/06/05 04:19:09;;;;;;;;;9.67;5.00;;;;;18.56;50.15;101305.34;6133006;23;46471;-60
2023/06/05 04:21:35;;;;;;;;;5.33;5.33;;;;;18.53;50.31;101308.06;6156397;23;45126;-61
2023/06/05 04:24:06;;;;;;;;;10.00;5.00;;;;;18.55;50.36;101315.28;6131004;23;45060;-60
2023/06/05 04:26:32;;;;;;;;;5.00;5.00;;;;;18.58;50.47;101320.69;6132043;23;45170;-62
2023/06/05 04:28:57;;;;;;;;;8.00;6.33;;;;;18.53;50.36;101316.19;6131916;23;45090;-62
2023/06/05 04:31:24;;;;;;;;;6.00;5.33;;;;;18.54;50.82;101323.38;6131439;23;45031;-60
2023/06/05 04:33:50;;;;;;;;;7.00;6.33;;;;;18.52;50.51;101317.97;6130582;23;45029;-62
2023/06/05 04:36:17;;;;;;;;;6.33;6.00;;;;;18.49;50.59;101317.94;6132644;23;44859;-63
2023/06/05 04:38:46;;;;;;;;;10.00;6.00;;;;;18.52;50.69;101317.97;6131981;23;45732;-63
2023/06/05 04:41:12;;;;;;;;;11.33;7.67;;;;;18.54;50.70;101312.56;6132751;23;44953;-63
2023/06/05 04:43:37;;;;;;;;;7.67;6.00;;;;;18.56;50.87;101319.78;6131903;23;44989;-60
2023/06/05 04:46:02;;;;;;;;;10.67;6.00;;;;;18.52;50.63;101314.38;6132456;23;44855;-63
2023/06/05 04:48:29;;;;;;;;;11.33;6.33;;;;;18.57;51.01;101336.94;6131992;23;45788;-61
2023/06/05 04:50:55;;;;;;;;;8.33;6.33;;;;;18.54;50.84;101332.38;6131532;23;44930;-61
2023/06/05 04:53:21;;;;;;;;;8.33;6.33;;;;;18.52;50.76;101325.19;6132177;23;45048;-61
2023/06/05 04:55:47;;;;;;;;;10.33;8.33;;;;;18.56;50.95;101329.69;6131754;23;45339;-65
2023/06/05 04:58:13;;;;;;;;;7.33;7.00;;;;;18.57;50.82;101328.81;6133741;23;45948;-59
2023/06/05 05:00:39;;;;;;;;;8.00;6.00;;;;;18.50;51.00;101322.47;6130494;23;45185;-60
2023/06/05 05:03:09;;;;;;;;;7.67;6.33;;;;;18.53;51.03;101318.88;6133712;23;45122;-61
2023/06/05 05:05:36;;;;;;;;;7.33;5.00;;;;;18.61;50.83;101336.06;6133777;23;45243;-60
2023/06/05 05:08:01;;;;;;;;;7.00;5.00;;;;;18.51;51.04;101307.13;6132083;23;45351;-60
2023/06/05 05:10:26;;;;;;;;;10.33;10.00;;;;;18.53;50.93;101319.78;6131871;23;44878;-61
2023/06/05 05:12:52;;;;;;;;;12.00;8.00;;;;;18.58;51.07;101328.81;6131076;23;45297;-61
2023/06/05 05:15:17;;;;;;;;;13.33;9.67;;;;;18.40;51.22;101299.00;6132518;23;45478;-61
2023/06/05 05:17:42;;;;;;;;;10.00;9.00;;;;;18.43;51.62;101326.06;6130541;23;46852;-61
2023/06/05 05:20:08;;;;;;;;;9.33;8.00;;;;;18.38;51.74;101320.63;6131142;23;45103;-62
2023/06/05 05:22:33;;;;;;;;;9.33;7.00;;;;;18.39;52.07;101335.06;6132063;23;45174;-60
2023/06/05 05:24:58;;;;;;;;;9.00;8.00;;;;;18.39;51.76;101327.84;6131987;23;45079;-63
2023/06/05 05:27:24;;;;;;;;;12.50;12.50;;;;;18.30;52.17;101311.59;6132170;23;45093;-60
2023/06/05 05:29:50;;;;;;;;;10.75;9.00;;;;;18.39;51.90;101330.53;6132020;23;45000;-61
2023/06/05 05:32:19;;;;;;;;;12.75;12.75;;;;;18.36;51.89;101335.97;6130444;23;45355;-60
2023/06/05 05:34:44;;;;;;;;;9.50;9.00;;;;;18.31;52.62;101328.72;6129691;23;45225;-63
2023/06/05 05:37:10;;;;;;;;;13.50;10.50;;;;;18.29;52.00;101320.59;6130535;23;50779;-61
2023/06/05 05:39:35;;;;;;;;;10.00;9.00;;;;;18.24;52.42;101325.97;6131804;23;44955;-61
2023/06/05 05:42:02;;;;;;;;;18.33;13.00;;;;;18.29;52.09;101323.31;6130685;23;44939;-61
2023/06/05 05:44:27;;;;;;;;;11.67;10.67;;;;;18.23;52.54;101315.16;6134070;23;45043;-61
2023/06/05 05:46:52;;;;;;;;;13.00;10.67;;;;;18.41;52.18;101325.13;6134603;23;45170;-63
2023/06/05 05:49:18;;;;;;;;;15.33;11.00;;;;;18.46;51.92;101327.88;6134395;23;45158;-60
2023/06/05 05:51:43;;;;;;;;;9.33;9.00;;;;;18.54;51.61;101331.50;6134489;23;45052;-63
2023/06/05 05:54:09;;;;;;;;;9.67;9.67;;;;;18.57;51.58;101336.94;6136016;23;45513;-61
2023/06/05 05:56:36;;;;;;;;;11.00;9.33;;;;;18.51;51.69;101321.59;6129792;23;45180;-61
2023/06/05 05:59:02;;;;;;;;;11.67;9.33;;;;;18.55;51.79;101330.63;6131219;23;44969;-62
2023/06/05 06:01:28;;;;;;;;;18.00;16.75;;;;;18.57;51.66;101343.22;6130756;23;44889;-60
2023/06/05 06:03:54;;;;;;;;;8.33;8.33;;;;;18.65;51.69;101343.25;6131421;23;44831;-62
2023/06/05 06:06:20;;;;;;;;;9.00;9.00;;;;;18.67;51.61;101344.16;6129895;23;45441;-60
2023/06/05 06:08:48;;;;;;;;;9.67;9.67;;;;;18.69;51.66;101357.69;6132047;23;45159;-62
2023/06/05 06:11:16;;;;;;;;;10.33;10.33;;;;;18.68;51.44;101353.22;6135291;23;45060;-61
2023/06/05 06:13:43;;;;;;;;;7.00;6.00;;;;;18.67;51.44;101351.38;6127803;23;45129;-63
2023/06/05 06:16:08;;;;;;;;;30.75;24.50;;;;;18.69;51.58;101358.63;6130197;23;45312;-61
2023/06/05 06:18:33;;;;;;;;;12.50;12.50;;;;;18.71;51.52;101345.06;6132237;23;45100;-60
2023/06/05 06:20:59;;;;;;;;;10.33;9.33;;;;;18.80;51.43;101350.50;6131908;23;45209;-62
2023/06/05 06:23:24;;;;;;;;;24.25;20.50;;;;;18.75;51.20;101325.25;6131887;23;45005;-60
2023/06/05 06:25:51;;;;;;;;;16.25;12.25;;;;;18.90;51.19;101340.63;6131294;23;46714;-60
2023/06/05 06:28:17;;;;;;;;;11.00;9.67;;;;;18.88;50.92;101334.31;6132266;23;44931;-64
2023/06/05 06:30:43;;;;;;;;;9.00;9.00;;;;;18.87;50.55;101336.09;6129954;23;45112;-62
2023/06/05 06:33:11;;;;;;;;;10.00;9.67;;;;;18.95;50.70;101355.09;6130794;23;45096;-61
2023/06/05 06:35:38;;;;;;;;;11.67;11.67;;;;;19.03;50.56;101355.09;6130067;23;45897;-60
2023/06/05 06:38:03;;;;;;;;;12.67;10.00;;;;;19.13;50.47;101365.94;6130459;23;45045;-62
2023/06/05 06:40:29;;;;;;;;;9.00;7.33;;;;;19.14;50.18;101351.50;6131069;23;45085;-62
2023/06/05 06:42:55;;;;;;;;;10.00;9.33;;;;;19.30;49.92;101363.25;6129907;23;45267;-64
2023/06/05 06:45:21;;;;;;;;;5.00;5.00;;;;;19.37;49.50;101356.03;6130216;23;45681;-62
2023/06/05 06:47:49;;;;;;;;;10.33;10.33;;;;;19.38;49.35;101360.53;6130355;23;45630;-62
2023/06/05 06:50:14;;;;;;;;;9.33;7.67;;;;;19.41;49.47;101362.34;6130126;23;45287;-65
2023/06/05 06:52:40;;;;;;;;;4.33;4.00;;;;;19.48;49.36;101358.72;6128989;23;45110;-60
2023/06/05 06:55:06;;;;;;;;;21.25;14.75;;;;;19.41;49.26;101343.38;6128421;23;45321;-63
2023/06/05 06:57:31;;;;;;;;;17.75;16.25;;;;;19.37;49.05;101314.47;6129417;23;44845;-65
2023/06/05 06:59:57;;;;;;;;;11.33;10.67;;;;;19.70;48.64;101360.50;6129807;23;45248;-63
2023/06/05 07:02:25;;;;;;;;;12.00;10.00;;;;;19.60;48.75;101353.31;6129707;23;45136;-62
2023/06/05 07:04:50;;;;;;;;;9.33;9.33;;;;;19.62;48.92;101358.72;6131138;23;45695;-61
2023/06/05 07:07:17;;;;;;;;;29.25;27.75;;;;;19.69;48.78;101357.81;6130750;23;45275;-64
2023/06/05 07:09:45;;;;;;;;;17.75;14.75;;;;;19.79;48.65;101356.00;6131259;23;45164;-62
2023/06/05 07:12:13;;;;;;;;;11.00;9.33;;;;;19.89;48.69;101357.78;6132512;23;44930;-63
2023/06/05 07:14:40;;;;;;;;;19.50;16.25;;;;;20.04;48.29;101356.84;6131371;23;45009;-64
2023/06/05 07:17:06;;;;;;;;;10.67;10.67;;;;;20.12;47.56;101356.84;6132628;23;45075;-62
2023/06/05 07:19:32;;;;;;;;;13.00;7.67;;;;;20.21;47.08;101357.72;6132004;23;44999;-60
2023/06/05 07:22:00;;;;;;;;;11.33;10.67;;;;;20.15;46.88;101349.59;6131455;23;45795;-62
2023/06/05 07:24:28;;;;;;;;;12.25;9.75;;;;;20.31;46.71;101361.28;6129828;23;45704;-61
2023/06/05 07:26:55;;;;;;;;;7.67;7.67;;;;;20.40;46.27;101361.22;6130242;23;45265;-62
2023/06/05 07:29:24;;;;;;;;;11.00;8.75;;;;;20.44;46.24;101356.69;6131486;23;44898;-63
2023/06/05 07:31:50;;;;;;;;;11.33;9.00;;;;;20.58;46.01;101370.22;6131350;23;45216;-62
2023/06/05 07:34:17;;;;;;;;;8.33;8.33;;;;;20.64;45.74;101369.28;6129238;23;46553;-63
2023/06/05 07:36:44;;;;;;;;;8.67;8.67;;;;;20.66;46.04;101359.34;6130986;23;44868;-64
2023/06/05 07:39:11;;;;;;;;;8.00;8.00;;;;;20.69;45.70;101343.94;6129480;23;44910;-63
2023/06/05 07:41:37;;;;;;;;;7.33;6.67;;;;;20.82;45.20;101343.84;6130242;23;44919;-65
2023/06/05 07:44:02;;;;;;;;;13.00;10.33;;;;;20.73;45.11;101326.69;6128644;23;45680;-62
2023/06/05 07:46:28;;;;;;;;;11.00;10.00;;;;;20.95;44.73;101362.78;6130332;23;45092;-61
2023/06/05 07:48:53;;;;;;;;;9.00;8.33;;;;;20.97;44.65;101363.66;6131364;23;45003;-62
2023/06/05 07:51:18;;;;;;;;;10.33;7.67;;;;;21.01;44.60;101352.78;6129906;23;45025;-63
2023/06/05 07:53:44;;;;;;;;;7.00;7.00;;;;;20.97;44.23;101347.38;6132077;23;45592;-65
2023/06/05 07:56:11;;;;;;;;;12.00;7.33;;;;;21.10;44.25;101353.63;6132784;23;45277;-64
2023/06/05 07:58:39;;;;;;;;;8.00;7.00;;;;;20.75;44.33;101269.66;6131566;23;45164;-66
2023/06/05 08:01:06;;;;;;;;;12.00;10.00;;;;;21.35;44.52;101359.75;6131482;23;45382;-62
2023/06/05 08:03:33;;;;;;;;;9.00;7.67;;;;;21.46;44.22;101346.06;6132096;23;45315;-65
2023/06/05 08:05:59;;;;;;;;;5.00;5.00;;;;;21.60;43.63;101353.25;6132590;23;45097;-63
2023/06/05 08:08:24;;;;;;;;;11.67;6.67;;;;;21.60;43.32;101336.94;6132420;23;45171;-63
2023/06/05 08:10:55;;;;;;;;;10.00;7.00;;;;;21.79;43.32;101352.13;6132087;23;44894;-63
2023/06/05 08:13:20;;;;;;;;;7.00;6.67;;;;;21.81;43.43;101341.22;6133148;23;45723;-63
2023/06/05 08:15:49;;;;;;;;;9.00;7.67;;;;;21.92;43.51;101354.72;6133533;23;44922;-63
2023/06/05 08:18:16;;;;;;;;;7.00;7.00;;;;;21.84;43.10;101317.59;6132300;23;45001;-62
2023/06/05 08:20:41;;;;;;;;;7.33;6.33;;;;;22.07;42.77;101355.44;6132555;23;45083;-63
2023/06/05 08:23:06;;;;;;;;;7.00;7.00;;;;;22.04;42.28;101328.28;6131583;23;45227;-63
2023/06/05 08:25:32;;;;;;;;;9.00;6.33;;;;;22.20;42.58;101345.31;6132025;23;45236;-62
2023/06/05 08:27:57;;;;;;;;;6.00;6.00;;;;;22.26;42.75;101339.78;6132692;23;45314;-62
2023/06/05 08:30:23;;;;;;;;;7.67;7.33;;;;;22.35;42.59;101337.91;6132826;23;45048;-61
2023/06/05 08:32:48;;;;;;;;;10.00;9.00;;;;;22.44;42.42;101343.25;6155395;23;47485;-62
2023/06/05 08:35:14;;;;;;;;;13.00;9.67;;;;;22.46;42.22;101338.66;6130800;23;45072;-63
2023/06/05 08:37:40;;;;;;;;;12.33;11.00;;;;;22.39;41.89;101312.44;6130498;23;45006;-62
2023/06/05 08:40:10;;;;;;;;;7.33;7.33;;;;;22.62;41.61;101336.66;6132186;23;45042;-63
2023/06/05 08:42:40;;;;;;;;;9.00;7.33;;;;;22.75;41.46;101342.78;6131550;23;45309;-63
2023/06/05 08:45:07;;;;;;;;;9.33;5.33;;;;;22.80;40.79;101330.94;6131831;23;44899;-64
2023/06/05 08:47:36;;;;;;;;;11.00;9.00;;;;;22.88;40.76;101328.06;6132019;23;44966;-65
2023/06/05 08:50:04;;;;;;;;;9.00;9.00;;;;;22.94;40.09;101327.97;6131859;23;44936;-62
2023/06/05 08:52:37;;;;;;;;;11.00;9.00;;;;;22.99;40.37;101319.72;6131469;23;45265;-62
2023/06/05 08:55:07;;;;;;;;;9.00;9.00;;;;;23.16;40.87;101342.22;6131321;23;45100;-61
2023/06/05 08:57:36;;;;;;;;;8.00;6.00;;;;;23.31;40.27;101338.31;6132255;23;45183;-63
2023/06/05 09:00:07;;;;;;;;;10.00;7.00;;;;;23.41;39.84;101339.03;6131781;23;45099;-62
2023/06/05 09:02:33;;;;;;;;;7.00;7.00;;;;;23.45;39.78;101326.28;6132327;23;45751;-61
2023/06/05 09:05:00;;;;;;;;;8.33;7.33;;;;;23.56;39.88;101329.72;6130735;23;45084;-63
2023/06/05 09:07:28;;;;;;;;;8.33;7.33;;;;;23.65;39.33;101315.00;6131744;23;45305;-63
2023/06/05 09:09:54;;;;;;;;;8.67;8.67;;;;;23.80;39.05;101332.91;6130892;23;45689;-63
2023/06/05 09:12:19;;;;;;;;;9.00;8.00;;;;;23.80;39.04;101325.59;6131690;23;45892;-63
2023/06/05 09:14:44;;;;;;;;;13.67;12.33;;;;;23.86;39.13;101325.53;6131824;23;44975;-64
2023/06/05 09:17:13;;;;;;;;;12.67;8.67;;;;;23.93;39.38;101323.56;6132540;23;44842;-65
2023/06/05 09:19:42;;;;;;;;;8.00;6.33;;;;;24.02;39.09;101320.66;6131664;23;45174;-62
2023/06/05 09:22:09;;;;;;;;;7.00;5.33;;;;;24.06;38.86;101321.50;6130129;23;46415;-62
2023/06/05 09:24:36;;;;;;;;;8.67;7.00;;;;;24.03;38.87;101314.25;6131587;23;45091;-64
2023/06/05 09:27:08;;;;;;;;;8.67;8.67;;;;;24.06;38.89;101321.50;6129768;23;45083;-63
2023/06/05 09:29:36;;;;;;;;;35.75;29.75;;;;;24.02;39.21;101306.09;6131227;23;44959;-62
2023/06/05 09:32:10;;;;;;;;;7.00;6.00;;;;;24.01;38.74;101301.59;6132043;23;45095;-63
2023/06/05 09:34:37;;;;;;;;;18.67;14.33;;;;;24.17;38.45;101324.00;6129427;23;45360;-64
2023/06/05 09:37:07;;;;;;;;;9.33;9.33;;;;;24.17;38.57;101314.00;6130403;23;44864;-62
2023/06/05 09:39:42;;;;;;;;;10.67;7.67;;;;;24.21;38.67;101320.28;6131072;23;45062;-64
2023/06/05 09:42:08;;;;;;;;;9.67;8.00;;;;;24.27;38.80;101309.22;6128110;23;45269;-63
2023/06/05 09:44:35;;;;;;;;;10.00;6.67;;;;;24.33;38.46;101316.38;6131021;23;44831;-65
2023/06/05 09:47:09;;;;;;;;;12.00;9.00;;;;;24.38;38.15;101315.34;6129944;23;45511;-63
2023/06/05 09:49:40;;;;;;;;;8.00;8.00;;;;;24.41;38.11;101307.06;6130896;23;44938;-64
2023/06/05 09:52:10;;;;;;;;;11.67;8.00;;;;;24.36;38.57;101292.63;6129814;23;45159;-66
2023/06/05 09:54:38;;;;;;;;;6.67;6.67;;;;;24.42;39.25;101308.88;6128887;23;45138;-68
2023/06/05 09:57:06;;;;;;;;;8.33;7.33;;;;;24.28;38.46;101279.13;6129735;23;45260;-64
2023/06/05 09:59:32;;;;;;;;;9.67;8.00;;;;;24.44;38.37;101295.19;6132981;23;45026;-70
2023/06/05 10:02:06;;;;;;;;;9.67;6.67;;;;;24.47;37.91;101298.75;6131752;23;45533;-71
2023/06/05 10:04:42;;;;;;;;;8.67;7.33;;;;;24.55;37.59;101293.16;6132641;23;45131;-72
2023/06/05 10:07:07;;;;;;;;;7.00;6.00;;;;;24.49;36.68;101278.72;6131705;23;45035;-70
2023/06/05 10:09:33;;;;;;;;;10.67;6.33;;;;;24.53;37.07;101286.78;6131846;23;44979;-66
2023/06/05 10:11:58;;;;;;;;;7.00;5.00;;;;;24.71;35.48;101299.16;6130329;23;45548;-70
2023/06/05 10:14:24;;;;;;;;;6.00;6.00;;;;;24.59;34.88;101261.19;6129404;23;44989;-67
2023/06/05 10:16:54;;;;;;;;;6.67;6.33;;;;;24.72;34.87;101272.75;6130713;23;45049;-62
2023/06/05 10:19:20;;;;;;;;;12.67;9.00;;;;;24.83;34.44;101281.53;6129427;23;45274;-62
2023/06/05 10:21:49;;;;;;;;;13.67;11.00;;;;;24.92;34.94;101296.84;6129335;23;45380;-67
2023/06/05 10:24:18;;;;;;;;;8.33;6.67;;;;;24.96;33.70;101288.53;6128325;23;45190;-65
2023/06/05 10:26:46;;;;;;;;;8.00;8.00;;;;;25.02;33.71;101282.91;6131087;23;44942;-64
2023/06/05 10:29:52;;;;;;;;;6.67;6.67;;;;;25.07;33.45;101290.97;6132863;23;45316;-67
2023/06/05 10:32:29;;;;;;;;;19.25;17.75;;;;;25.11;33.07;101281.78;6129781;23;45740;-68
2023/06/05 10:35:01;;;;;;;;;7.00;6.67;;;;;25.16;33.47;101287.09;6130148;23;44999;-66
2023/06/05 10:38:03;;;;;;;;;8.33;8.33;;;;;25.22;33.13;101275.13;6130123;23;44843;-67
2023/06/05 10:40:29;;;;;;;;;6.67;6.00;;;;;25.29;33.19;101285.00;6130009;23;45896;-65
2023/06/05 10:43:35;;;;;;;;;5.33;5.33;;;;;25.35;33.76;101280.25;6129037;23;45239;-62
2023/06/05 10:46:22;;;;;;;;;6.00;6.00;;;;;25.34;32.91;101258.41;6130040;23;45335;-66
2023/06/05 10:49:10;;;;;;;;;5.00;5.00;;;;;25.49;32.99;101276.25;6127739;23;45194;-61
2023/06/05 10:52:03;;;;;;;;;8.00;5.33;;;;;25.55;32.32;101281.56;6129823;23;44886;-63
2023/06/05 10:54:29;;;;;;;;;10.67;8.67;;;;;25.53;31.75;101273.38;6145451;23;46386;-63
2023/06/05 10:56:56;;;;;;;;;8.00;6.33;;;;;25.48;32.56;101248.00;6127054;23;45052;-62
2023/06/05 10:59:23;;;;;;;;;12.67;12.67;;;;;25.56;32.96;101254.16;6127505;23;45185;-66
2023/06/05 11:04:58;;;;;;;;;11.00;9.00;;;;;25.69;33.79;101257.44;6130332;23;45031;-64
2023/06/05 11:07:30;;;;;;;;;9.00;9.00;;;;;25.74;32.99;101260.06;6123731;23;44902;-65
2023/06/05 11:10:01;;;;;;;;;11.00;8.67;;;;;25.78;32.80;101253.53;6129441;23;45478;-67
2023/06/05 11:12:47;;;;;;;;;10.00;7.00;;;;;25.83;32.27;101256.16;6128775;23;45190;-66
2023/06/05 11:15:36;;;;;;;;;6.67;6.67;;;;;25.86;31.95;101253.34;6104910;23;46172;-64
2023/06/05 11:18:27;;;;;;;;;7.00;7.00;;;;;25.89;32.30;101242.28;6130362;23;44968;-72
2023/06/05 11:20:53;;;;;;;;;7.00;7.00;;;;;25.74;31.84;101221.75;6129170;23;45210;-67
2023/06/05 11:23:20;;;;;;;;;10.33;10.33;;;;;25.83;31.60;101218.72;6128331;23;45154;-69
2023/06/05 11:25:46;;;;;;;;;10.00;7.00;;;;;25.89;32.01;101237.72;6129828;23;46370;-65
2023/06/05 11:28:12;;;;;;;;;12.33;12.33;;;;;25.86;31.88;101235.06;6127409;23;45196;-67